createdAt,value
2022-10-17T00:01:30.980Z,86
2022-10-17T00:03:28.524Z,86
2022-10-17T00:05:29.633Z,87
2022-10-17T00:07:28.972Z,86
2022-10-17T00:09:30.906Z,87
2022-10-17T00:11:26.822Z,87
2022-10-17T00:13:28.681Z,87
2022-10-17T00:15:29.916Z,87
2022-10-17T00:17:29.776Z,87
2022-10-17T00:19:29.192Z,87
2022-10-17T00:21:26.833Z,86
2022-10-17T00:23:31.939Z,86
2022-10-17T00:25:29.141Z,86
2022-10-17T00:27:30.809Z,86
2022-10-17T00:29:30.470Z,87
2022-10-17T00:31:28.951Z,87
2022-10-17T00:33:28.635Z,87
2022-10-17T00:35:29.281Z,87
2022-10-17T00:37:32.163Z,86
2022-10-17T00:39:30.266Z,87
2022-10-17T00:41:30.059Z,87
2022-10-17T00:43:28.655Z,87
2022-10-17T00:45:29.920Z,87
2022-10-17T00:47:26.812Z,87
2022-10-17T00:49:31.239Z,87
2022-10-17T00:51:29.151Z,88
2022-10-17T00:53:31.769Z,88
2022-10-17T00:55:30.480Z,88
2022-10-17T00:57:29.109Z,88
2022-10-17T00:59:31.805Z,88
2022-10-17T01:01:31.339Z,88
2022-10-17T01:05:31.543Z,88
2022-10-17T01:07:32.003Z,88
2022-10-17T01:09:28.999Z,89
2022-10-17T01:11:28.824Z,89
2022-10-17T01:13:30.987Z,89
2022-10-17T01:15:30.904Z,89
2022-10-17T01:17:31.766Z,89
2022-10-17T01:19:30.564Z,89
2022-10-17T01:21:29.400Z,89
2022-10-17T01:23:29.886Z,88
2022-10-17T01:25:28.649Z,88
2022-10-17T01:27:30.218Z,88
2022-10-17T01:29:28.625Z,88
2022-10-17T01:31:29.151Z,89
2022-10-17T01:33:31.873Z,89
2022-10-17T01:35:32.023Z,89
2022-10-17T01:37:31.107Z,89
2022-10-17T01:39:29.995Z,89
2022-10-17T01:41:31.280Z,89
2022-10-17T01:43:31.150Z,89
2022-10-17T01:45:28.623Z,89
2022-10-17T01:47:29.054Z,89
2022-10-17T01:49:31.792Z,89
2022-10-17T01:51:28.884Z,89
2022-10-17T01:53:29.527Z,89
2022-10-17T01:55:28.612Z,89
2022-10-17T01:57:31.111Z,89
2022-10-17T01:59:30.550Z,89
2022-10-17T02:01:31.839Z,89
2022-10-17T02:03:30.872Z,89
2022-10-17T02:05:28.691Z,89
2022-10-17T02:07:29.387Z,89
2022-10-17T02:09:30.600Z,89
2022-10-17T02:11:29.492Z,90
2022-10-17T02:13:28.982Z,90
2022-10-17T02:15:31.588Z,90
2022-10-17T02:17:28.785Z,90
2022-10-17T02:19:31.569Z,91
2022-10-17T02:21:28.959Z,90
2022-10-17T02:23:28.623Z,90
2022-10-17T02:25:28.655Z,90
2022-10-17T02:27:29.395Z,90
2022-10-17T02:29:30.978Z,90
2022-10-17T02:31:30.866Z,90
2022-10-17T02:33:28.945Z,90
2022-10-17T02:35:31.655Z,90
2022-10-17T02:37:29.213Z,90
2022-10-17T02:39:28.644Z,90
2022-10-17T02:43:31.852Z,90
2022-10-17T02:45:28.917Z,91
2022-10-17T02:47:28.625Z,91
2022-10-17T02:49:26.895Z,90
2022-10-17T02:51:30.841Z,90
2022-10-17T02:53:31.562Z,90
2022-10-17T02:55:28.878Z,90
2022-10-17T02:57:30.814Z,90
2022-10-17T02:59:29.062Z,90
2022-10-17T03:01:31.007Z,90
2022-10-17T03:03:28.612Z,90
2022-10-17T03:05:28.635Z,90
2022-10-17T03:07:30.905Z,90
2022-10-17T03:09:31.838Z,90
2022-10-17T03:11:27.282Z,90
2022-10-17T03:13:28.663Z,90
2022-10-17T03:15:28.607Z,90
2022-10-17T03:17:31.532Z,90
2022-10-17T03:19:31.509Z,90
2022-10-17T03:21:28.629Z,91
2022-10-17T03:25:28.900Z,91
2022-10-17T03:27:31.546Z,91
2022-10-17T03:29:29.966Z,91
2022-10-17T03:31:29.966Z,91
2022-10-17T03:33:30.552Z,92
2022-10-17T03:35:31.772Z,92
2022-10-17T03:37:31.242Z,92
2022-10-17T03:39:28.642Z,92
2022-10-17T03:41:28.973Z,92
2022-10-17T03:43:28.513Z,92
2022-10-17T03:45:29.564Z,92
2022-10-17T03:47:28.781Z,92
2022-10-17T03:49:31.989Z,92
2022-10-17T03:51:30.169Z,91
2022-10-17T03:53:31.287Z,91
2022-10-17T03:55:31.553Z,91
2022-10-17T03:57:28.843Z,91
2022-10-17T03:59:31.947Z,91
2022-10-17T04:01:28.620Z,91
2022-10-17T04:03:32.116Z,91
2022-10-17T04:05:30.919Z,91
2022-10-17T04:07:30.070Z,91
2022-10-17T04:09:28.684Z,91
2022-10-17T04:11:29.523Z,91
2022-10-17T04:13:31.689Z,91
2022-10-17T04:15:30.668Z,91
2022-10-17T04:17:28.973Z,91
2022-10-17T04:19:31.264Z,91
2022-10-17T04:21:30.963Z,91
2022-10-17T04:23:31.773Z,91
2022-10-17T04:25:30.364Z,91
2022-10-17T04:27:29.458Z,91
2022-10-17T04:29:30.495Z,91
2022-10-17T04:31:30.940Z,91
2022-10-17T04:33:29.557Z,91
2022-10-17T04:35:30.474Z,91
2022-10-17T04:37:28.623Z,91
2022-10-17T04:39:28.669Z,91
2022-10-17T04:41:29.247Z,91
2022-10-17T04:43:30.565Z,91
2022-10-17T04:45:31.249Z,91
2022-10-17T04:47:31.220Z,91
2022-10-17T04:49:27.407Z,91
2022-10-17T04:51:30.268Z,91
2022-10-17T04:53:29.513Z,91
2022-10-17T04:55:30.907Z,91
2022-10-17T04:57:30.123Z,91
2022-10-17T04:59:29.870Z,91
2022-10-17T05:01:29.964Z,91
2022-10-17T05:03:31.613Z,91
2022-10-17T05:05:30.527Z,91
2022-10-17T05:07:28.626Z,91
2022-10-17T05:09:30.985Z,91
2022-10-17T05:11:30.755Z,91
2022-10-17T05:13:30.050Z,92
2022-10-17T05:15:28.413Z,92
2022-10-17T05:17:30.908Z,92
2022-10-17T05:19:31.027Z,92
2022-10-17T05:21:30.063Z,92
2022-10-17T05:23:30.806Z,92
2022-10-17T05:25:28.881Z,92
2022-10-17T05:29:29.137Z,92
2022-10-17T05:31:30.742Z,92
2022-10-17T05:33:30.381Z,92
2022-10-17T05:35:30.983Z,92
2022-10-17T05:37:30.799Z,92
2022-10-17T05:39:29.945Z,92
2022-10-17T05:41:30.880Z,92
2022-10-17T05:43:28.657Z,92
2022-10-17T05:45:29.201Z,92
2022-10-17T05:47:31.567Z,92
2022-10-17T05:49:39.896Z,92
2022-10-17T05:51:29.022Z,92
2022-10-17T05:53:30.006Z,92
2022-10-17T05:55:28.666Z,92
2022-10-17T05:57:28.682Z,92
2022-10-17T05:59:28.477Z,92
2022-10-17T06:01:30.931Z,92
2022-10-17T06:03:28.370Z,91
2022-10-17T06:05:30.943Z,91
2022-10-17T06:07:29.693Z,91
2022-10-17T06:09:28.681Z,91
2022-10-17T06:11:31.390Z,91
2022-10-17T06:13:28.268Z,91
2022-10-17T06:15:29.979Z,91
2022-10-17T06:17:31.308Z,91
2022-10-17T06:19:29.612Z,91
2022-10-17T06:21:30.908Z,91
2022-10-17T06:23:28.639Z,91
2022-10-17T06:25:30.295Z,91
2022-10-17T06:27:28.704Z,91
2022-10-17T06:29:29.186Z,91
2022-10-17T06:31:30.320Z,91
2022-10-17T06:35:31.765Z,91
2022-10-17T06:37:32.245Z,91
2022-10-17T06:39:29.686Z,91
2022-10-17T06:41:28.663Z,90
2022-10-17T06:43:31.003Z,90
2022-10-17T06:45:31.635Z,91
2022-10-17T06:47:30.312Z,90
2022-10-17T06:49:31.377Z,90
2022-10-17T06:51:28.648Z,90
2022-10-17T06:53:30.819Z,90
2022-10-17T06:55:30.028Z,89
2022-10-17T06:57:30.907Z,89
2022-10-17T06:59:31.905Z,89
2022-10-17T07:01:30.341Z,89
2022-10-17T07:03:30.720Z,88
2022-10-17T07:05:29.142Z,88
2022-10-17T07:07:31.323Z,87
2022-10-17T07:09:28.652Z,87
2022-10-17T07:11:28.662Z,87
2022-10-17T07:13:30.309Z,87
2022-10-17T07:15:30.983Z,87
2022-10-17T07:17:28.942Z,87
2022-10-17T07:19:30.580Z,86
2022-10-17T07:21:34.003Z,84
2022-10-17T07:25:28.709Z,79
2022-10-17T07:27:31.856Z,81
2022-10-17T07:29:29.587Z,83
2022-10-17T07:31:30.917Z,82
2022-10-17T07:33:31.593Z,81
2022-10-17T07:35:30.079Z,81
2022-10-17T07:37:30.187Z,79
2022-10-17T07:41:30.044Z,79
2022-10-17T07:43:31.300Z,79
2022-10-17T07:45:28.662Z,78
2022-10-17T07:47:31.685Z,78
2022-10-17T07:49:31.229Z,78
2022-10-17T07:51:30.985Z,78
2022-10-17T07:53:29.555Z,77
2022-10-17T07:55:31.762Z,77
2022-10-17T07:57:28.321Z,77
2022-10-17T07:59:31.319Z,78
2022-10-17T08:01:29.950Z,77
2022-10-17T08:03:29.187Z,78
2022-10-17T08:05:28.331Z,78
2022-10-17T08:07:31.567Z,78
2022-10-17T08:09:28.790Z,79
2022-10-17T08:13:31.589Z,78
2022-10-17T08:15:30.868Z,78
2022-10-17T08:17:30.069Z,78
2022-10-17T08:19:31.711Z,78
2022-10-17T08:21:31.786Z,78
2022-10-17T08:23:31.799Z,79
2022-10-17T08:25:30.345Z,78
2022-10-17T08:27:30.252Z,78
2022-10-17T08:29:29.998Z,78
2022-10-17T08:31:29.140Z,77
2022-10-17T08:33:28.699Z,78
2022-10-17T08:35:28.666Z,78
2022-10-17T08:37:29.190Z,79
2022-10-17T08:39:28.714Z,79
2022-10-17T08:41:26.948Z,79
2022-10-17T08:43:31.222Z,79
2022-10-17T08:45:31.218Z,78
2022-10-17T08:47:28.987Z,79
2022-10-17T08:49:30.575Z,79
2022-10-17T08:51:31.705Z,80
2022-10-17T08:53:31.366Z,79
2022-10-17T08:55:31.008Z,79
2022-10-17T08:57:29.299Z,79
2022-10-17T08:59:29.543Z,80
2022-10-17T09:01:30.156Z,80
2022-10-17T09:03:31.420Z,80
2022-10-17T09:05:28.722Z,80
2022-10-17T09:07:28.890Z,80
2022-10-17T09:11:30.236Z,81
2022-10-17T09:13:28.753Z,80
2022-10-17T09:15:31.085Z,80
2022-10-17T09:17:31.309Z,80
2022-10-17T09:19:31.865Z,79
2022-10-17T09:21:30.995Z,79
2022-10-17T09:23:29.222Z,79
2022-10-17T09:25:28.753Z,80
2022-10-17T09:27:31.824Z,80
2022-10-17T09:29:35.431Z,79
2022-10-17T09:31:28.736Z,79
2022-10-17T09:33:42.525Z,79
2022-10-17T09:35:30.496Z,79
2022-10-17T09:37:31.443Z,79
2022-10-17T09:39:29.135Z,79
2022-10-17T09:41:44.628Z,80
2022-10-17T09:43:30.144Z,80
2022-10-17T09:45:31.802Z,81
2022-10-17T09:47:30.977Z,80
2022-10-17T09:49:27.433Z,80
2022-10-17T09:51:28.746Z,79
2022-10-17T09:53:31.886Z,79
2022-10-17T09:55:30.953Z,79
2022-10-17T09:57:32.096Z,79
2022-10-17T09:59:28.821Z,79
2022-10-17T10:01:31.044Z,79
2022-10-17T10:03:29.267Z,79
2022-10-17T10:05:31.358Z,80
2022-10-17T10:07:29.202Z,80
2022-10-17T10:09:28.765Z,80
2022-10-17T10:11:31.473Z,80
2022-10-17T10:13:28.686Z,80
2022-10-17T10:15:32.198Z,79
2022-10-17T10:17:31.006Z,79
2022-10-17T10:19:28.815Z,79
2022-10-17T10:21:30.541Z,79
2022-10-17T10:23:30.362Z,79
2022-10-17T10:25:31.780Z,79
2022-10-17T10:27:30.553Z,79
2022-10-17T10:29:29.314Z,79
2022-10-17T10:31:30.704Z,79
2022-10-17T10:33:31.055Z,78
2022-10-17T10:35:31.085Z,79
2022-10-17T10:37:30.276Z,78
2022-10-17T10:39:32.327Z,78
2022-10-17T10:41:27.201Z,78
2022-10-17T10:43:30.603Z,78
2022-10-17T10:45:46.791Z,78
2022-10-17T10:49:29.041Z,77
2022-10-17T10:51:37.645Z,77
2022-10-17T10:53:34.179Z,76
2022-10-17T10:55:30.949Z,77
2022-10-17T10:57:29.487Z,77
2022-10-17T10:59:31.888Z,77
2022-10-17T11:01:29.720Z,77
2022-10-17T11:03:31.121Z,77
2022-10-17T11:05:30.069Z,77
2022-10-17T11:07:27.617Z,77
2022-10-17T11:09:33.027Z,76
2022-10-17T11:11:31.114Z,77
2022-10-17T11:13:31.730Z,77
2022-10-17T11:15:30.718Z,77
2022-10-17T11:17:29.069Z,77
2022-10-17T11:19:30.571Z,77
2022-10-17T11:21:31.138Z,77
2022-10-17T11:23:31.306Z,77
2022-10-17T11:25:29.583Z,77
2022-10-17T11:27:29.598Z,77
2022-10-17T11:29:31.991Z,77
2022-10-17T11:31:30.666Z,78
2022-10-17T11:33:30.918Z,78
2022-10-17T11:37:30.277Z,76
2022-10-17T11:39:30.093Z,76
2022-10-17T11:41:31.598Z,76
2022-10-17T11:43:26.666Z,76
2022-10-17T11:45:28.766Z,77
2022-10-17T11:47:31.064Z,76
2022-10-17T11:49:31.218Z,76
2022-10-17T11:52:01.439Z,76
2022-10-17T11:53:28.375Z,76
2022-10-17T11:55:31.632Z,78
2022-10-17T11:57:31.456Z,77
2022-10-17T11:59:31.057Z,77
2022-10-17T12:01:30.229Z,77
2022-10-17T12:03:29.585Z,77
2022-10-17T12:05:30.557Z,76
2022-10-17T12:07:29.148Z,76
2022-10-17T12:09:31.107Z,76
2022-10-17T12:11:32.227Z,76
2022-10-17T12:13:29.048Z,76
2022-10-17T12:15:30.710Z,76
2022-10-17T12:17:31.781Z,75
2022-10-17T12:19:29.610Z,75
2022-10-17T12:23:31.714Z,76
2022-10-17T12:25:32.302Z,76
2022-10-17T12:27:31.490Z,76
2022-10-17T12:29:31.101Z,76
2022-10-17T12:31:33.817Z,76
2022-10-17T12:33:29.697Z,77
2022-10-17T12:35:28.787Z,77
2022-10-17T12:37:29.060Z,77
2022-10-17T12:39:31.751Z,77
2022-10-17T12:41:32.187Z,77
2022-10-17T12:43:29.674Z,78
2022-10-17T12:45:30.156Z,79
2022-10-17T12:47:30.866Z,79
2022-10-17T12:49:30.612Z,78
2022-10-17T12:51:35.545Z,77
2022-10-17T12:53:30.376Z,77
2022-10-17T12:57:35.059Z,78
2022-10-17T12:59:30.614Z,79
2022-10-17T13:01:29.405Z,79
2022-10-17T13:03:30.178Z,78
2022-10-17T13:05:36.461Z,78
2022-10-17T13:07:31.909Z,78
2022-10-17T13:09:28.451Z,77
2022-10-17T13:11:28.503Z,77
2022-10-17T13:13:30.071Z,77
2022-10-17T13:15:30.804Z,79
2022-10-17T13:17:32.012Z,79
2022-10-17T13:19:29.778Z,79
2022-10-17T13:21:28.939Z,79
2022-10-17T13:23:31.092Z,79
2022-10-17T13:25:31.153Z,79
2022-10-17T13:27:30.182Z,79
2022-10-17T13:29:30.181Z,80
2022-10-17T13:31:29.694Z,81
2022-10-17T13:33:32.124Z,80
2022-10-17T13:35:48.515Z,80
2022-10-17T13:37:29.704Z,80
2022-10-17T13:39:38.612Z,80
2022-10-17T13:41:36.093Z,80
2022-10-17T13:43:30.612Z,80
2022-10-17T13:45:29.830Z,79
2022-10-17T13:47:30.815Z,78
2022-10-17T13:49:28.782Z,77
2022-10-17T13:51:29.383Z,77
2022-10-17T13:53:29.014Z,76
2022-10-17T13:55:31.143Z,76
2022-10-17T13:57:29.812Z,76
2022-10-17T13:59:29.199Z,76
2022-10-17T14:01:28.758Z,76
2022-10-17T14:03:36.626Z,75
2022-10-17T14:05:28.723Z,76
2022-10-17T14:07:41.686Z,76
2022-10-17T14:09:30.834Z,76
2022-10-17T14:11:29.684Z,76
2022-10-17T14:13:28.898Z,76
2022-10-17T14:15:30.067Z,76
2022-10-17T14:17:29.151Z,76
2022-10-17T14:19:28.722Z,76
2022-10-17T14:21:44.079Z,76
2022-10-17T14:23:28.768Z,76
2022-10-17T14:25:28.616Z,76
2022-10-17T14:27:29.179Z,76
2022-10-17T14:29:29.343Z,76
2022-10-17T14:31:28.795Z,76
2022-10-17T14:33:30.072Z,76
2022-10-17T14:35:41.391Z,76
2022-10-17T14:37:29.521Z,77
2022-10-17T14:39:31.934Z,77
2022-10-17T14:41:42.213Z,78
2022-10-17T14:43:31.052Z,78
2022-10-17T14:45:30.133Z,78
2022-10-17T14:47:43.001Z,78
2022-10-17T14:49:35.434Z,78
2022-10-17T14:51:35.931Z,78
2022-10-17T14:53:28.778Z,78
2022-10-17T14:55:30.152Z,78
2022-10-17T14:59:03.335Z,78
2022-10-17T15:01:11.757Z,78
2022-10-17T15:03:06.557Z,78
2022-10-17T15:05:12.960Z,78
2022-10-17T15:07:06.375Z,78
2022-10-17T15:09:10.335Z,78
2022-10-17T15:11:10.480Z,78
2022-10-17T15:13:28.963Z,78
2022-10-17T15:15:09.635Z,79
2022-10-17T15:17:06.987Z,79
2022-10-17T15:19:10.547Z,79
2022-10-17T15:21:26.142Z,79
2022-10-17T15:23:12.824Z,79
2022-10-17T15:25:10.317Z,79
2022-10-17T15:27:07.107Z,79
2022-10-17T15:29:03.113Z,79
2022-10-17T15:31:07.937Z,80
2022-10-17T15:33:11.043Z,80
2022-10-17T15:35:06.612Z,80
2022-10-17T15:37:06.159Z,80
2022-10-17T15:39:05.914Z,81
2022-10-17T15:41:09.831Z,81
2022-10-17T15:43:08.856Z,81
2022-10-17T15:45:05.938Z,81
2022-10-17T15:47:18.011Z,82
2022-10-17T15:49:05.899Z,82
2022-10-17T15:51:06.393Z,82
2022-10-17T15:53:06.320Z,82
2022-10-17T15:55:09.556Z,82
2022-10-17T15:57:06.882Z,82
2022-10-17T15:59:06.372Z,81
2022-10-17T16:01:08.863Z,81
2022-10-17T16:03:11.135Z,81
2022-10-17T16:05:06.090Z,81
2022-10-17T16:07:13.586Z,81
2022-10-17T16:09:06.335Z,81
2022-10-17T16:11:08.902Z,81
2022-10-17T16:13:06.428Z,82
2022-10-17T16:15:12.193Z,82
2022-10-17T16:17:06.389Z,82
2022-10-17T16:19:06.300Z,82
2022-10-17T16:21:09.041Z,82
2022-10-17T16:23:09.854Z,82
2022-10-17T16:25:08.318Z,82
2022-10-17T16:27:11.175Z,82
2022-10-17T16:29:06.258Z,82
2022-10-17T16:31:07.823Z,82
2022-10-17T16:33:09.539Z,82
2022-10-17T16:35:12.957Z,82
2022-10-17T16:37:07.952Z,82
2022-10-17T16:39:06.364Z,82
2022-10-17T16:41:13.421Z,83
2022-10-17T16:43:08.940Z,83
2022-10-17T16:45:06.360Z,83
2022-10-17T16:47:12.806Z,83
2022-10-17T16:49:08.057Z,83
2022-10-17T16:51:06.358Z,83
2022-10-17T16:53:06.244Z,83
2022-10-17T16:55:07.337Z,83
2022-10-17T16:57:09.123Z,84
2022-10-17T16:59:09.031Z,84
2022-10-17T17:01:07.316Z,84
2022-10-17T17:03:06.430Z,84
2022-10-17T17:05:05.904Z,84
2022-10-17T17:07:06.353Z,84
2022-10-17T17:09:09.471Z,84
2022-10-17T17:11:05.479Z,84
2022-10-17T17:13:13.268Z,84
2022-10-17T17:15:04.813Z,84
2022-10-17T17:17:07.685Z,84
2022-10-17T17:19:06.573Z,84
2022-10-17T17:21:09.599Z,84
2022-10-17T17:23:15.774Z,84
2022-10-17T17:25:12.968Z,85
2022-10-17T17:27:07.769Z,84
2022-10-17T17:29:14.192Z,85
2022-10-17T17:31:09.539Z,85
2022-10-17T17:33:06.379Z,85
2022-10-17T17:35:07.091Z,85
2022-10-17T17:37:09.145Z,85
2022-10-17T17:39:06.323Z,84
2022-10-17T17:41:07.432Z,84
2022-10-17T17:43:12.947Z,84
2022-10-17T17:45:09.666Z,84
2022-10-17T17:47:09.441Z,84
2022-10-17T17:49:08.934Z,84
2022-10-17T17:51:05.900Z,84
2022-10-17T17:53:12.734Z,84
2022-10-17T17:55:10.994Z,84
2022-10-17T17:57:10.871Z,84
2022-10-17T17:59:12.109Z,84
2022-10-17T18:01:11.311Z,85
2022-10-17T18:03:06.190Z,85
2022-10-17T18:05:09.512Z,85
2022-10-17T18:07:09.606Z,85
2022-10-17T18:09:08.097Z,85
2022-10-17T18:11:07.670Z,85
2022-10-17T18:13:08.628Z,85
2022-10-17T18:15:03.103Z,85
2022-10-17T18:17:12.579Z,85
2022-10-17T18:19:12.637Z,85
2022-10-17T18:21:06.306Z,86
2022-10-17T18:23:06.712Z,86
2022-10-17T18:25:13.581Z,86
2022-10-17T18:27:09.487Z,86
2022-10-17T18:29:08.428Z,86
2022-10-17T18:31:06.480Z,86
2022-10-17T18:33:08.578Z,86
2022-10-17T18:35:07.652Z,85
2022-10-17T18:37:09.446Z,85
2022-10-17T18:39:05.955Z,85
2022-10-17T18:41:11.516Z,85
2022-10-17T18:43:06.623Z,85
2022-10-17T18:45:08.865Z,85
2022-10-17T18:47:07.142Z,85
2022-10-17T18:49:12.557Z,85
2022-10-17T18:51:05.566Z,86
2022-10-17T18:53:06.199Z,86
2022-10-17T18:55:06.335Z,86
2022-10-17T18:57:05.875Z,85
2022-10-17T18:59:07.568Z,86
2022-10-17T19:01:06.490Z,87
2022-10-17T19:03:08.926Z,86
2022-10-17T19:05:09.043Z,86
2022-10-17T19:07:03.131Z,86
2022-10-17T19:09:12.832Z,86
2022-10-17T19:11:07.221Z,86
2022-10-17T19:15:09.059Z,86
2022-10-17T19:17:06.061Z,87
2022-10-17T19:19:07.154Z,87
2022-10-17T19:21:09.390Z,87
2022-10-17T19:23:09.516Z,87
2022-10-17T19:25:05.943Z,87
2022-10-17T19:27:10.885Z,87
2022-10-17T19:29:06.590Z,87
2022-10-17T19:31:06.373Z,88
2022-10-17T19:35:09.224Z,88
2022-10-17T19:37:09.045Z,89
2022-10-17T19:39:05.469Z,89
2022-10-17T19:41:07.939Z,89
2022-10-17T19:43:07.398Z,89
2022-10-17T19:45:09.795Z,89
2022-10-17T19:47:11.667Z,88
2022-10-17T19:49:06.343Z,88
2022-10-17T19:51:06.635Z,88
2022-10-17T19:53:09.379Z,89
2022-10-17T19:55:09.479Z,89
2022-10-17T19:57:16.665Z,89
2022-10-17T19:59:13.188Z,89
2022-10-17T20:01:07.216Z,89
2022-10-17T20:03:11.892Z,89
2022-10-17T20:05:18.783Z,88
2022-10-17T20:09:15.602Z,89
2022-10-17T20:13:09.570Z,89
2022-10-17T20:15:12.415Z,89
2022-10-17T20:17:06.386Z,89
2022-10-17T20:19:02.746Z,89
2022-10-17T20:21:11.300Z,89
2022-10-17T20:23:09.537Z,89
2022-10-17T20:25:06.542Z,89
2022-10-17T20:27:02.773Z,89
2022-10-17T20:29:06.360Z,89
2022-10-17T20:31:12.540Z,89
2022-10-17T20:33:06.473Z,89
2022-10-17T20:35:05.944Z,89
2022-10-17T20:37:06.019Z,90
2022-10-17T20:39:06.508Z,90
2022-10-17T20:41:06.368Z,90
2022-10-17T20:43:02.803Z,90
2022-10-17T20:45:05.983Z,90
2022-10-17T20:47:16.085Z,90
2022-10-17T20:49:10.591Z,90
2022-10-17T20:51:09.079Z,90
2022-10-17T20:53:31.712Z,90
2022-10-17T20:55:06.540Z,90
2022-10-17T20:57:06.067Z,90
2022-10-17T20:59:08.628Z,90
2022-10-17T21:01:10.022Z,90
2022-10-17T21:03:06.384Z,90
2022-10-17T21:05:06.427Z,90
2022-10-17T21:07:09.640Z,89
2022-10-17T21:09:05.740Z,90
2022-10-17T21:11:06.276Z,90
2022-10-17T21:13:06.616Z,90
2022-10-17T21:15:06.867Z,89
2022-10-17T21:17:06.759Z,90
2022-10-17T21:19:06.827Z,89
2022-10-17T21:21:09.851Z,89
2022-10-17T21:23:05.802Z,89
2022-10-17T21:25:14.894Z,89
2022-10-17T21:27:05.494Z,90
2022-10-17T21:29:05.595Z,90
2022-10-17T21:31:06.588Z,90
2022-10-17T21:33:14.138Z,90
2022-10-17T21:35:13.184Z,90
2022-10-17T21:37:06.488Z,90
2022-10-17T21:39:09.014Z,90
2022-10-17T21:41:09.438Z,89
2022-10-17T21:43:06.622Z,89
2022-10-17T21:45:10.454Z,89
2022-10-17T21:47:05.981Z,89
2022-10-17T21:49:09.914Z,89
2022-10-17T21:51:09.025Z,90
2022-10-17T21:53:04.610Z,89
2022-10-17T21:55:10.488Z,89
2022-10-17T21:57:06.428Z,90
2022-10-17T21:59:06.683Z,90
2022-10-17T22:01:06.122Z,90
2022-10-17T22:03:09.610Z,90
2022-10-17T22:05:06.503Z,90
2022-10-17T22:07:06.480Z,90
2022-10-17T22:09:06.550Z,90
2022-10-17T22:11:03.002Z,90
2022-10-17T22:13:08.489Z,90
2022-10-17T22:15:05.867Z,90
2022-10-17T22:19:09.625Z,90
2022-10-17T22:21:06.083Z,90
2022-10-17T22:23:06.393Z,90
2022-10-17T22:25:06.030Z,90
2022-10-17T22:27:03.396Z,90
2022-10-17T22:29:06.006Z,90
2022-10-17T22:31:09.636Z,91
2022-10-17T22:33:06.558Z,91
2022-10-17T22:35:05.905Z,91
2022-10-17T22:37:08.476Z,91
2022-10-17T22:39:06.104Z,91
2022-10-17T22:41:05.897Z,91
2022-10-17T22:43:06.323Z,91
2022-10-17T22:45:06.662Z,90
2022-10-17T22:47:05.572Z,90
2022-10-17T22:49:05.918Z,90
2022-10-17T22:51:06.615Z,90
2022-10-17T22:53:05.878Z,90
2022-10-17T22:55:05.361Z,90
2022-10-17T22:57:06.075Z,90
2022-10-17T22:59:06.124Z,90
2022-10-17T23:01:05.966Z,90
2022-10-17T23:03:06.018Z,91
2022-10-17T23:05:06.572Z,91
2022-10-17T23:07:03.165Z,90
2022-10-17T23:09:06.256Z,90
2022-10-17T23:11:06.175Z,90
2022-10-17T23:13:05.983Z,90
2022-10-17T23:17:07.725Z,91
2022-10-17T23:19:12.448Z,91
2022-10-17T23:21:05.742Z,91
2022-10-17T23:23:05.872Z,91
2022-10-17T23:25:05.880Z,91
2022-10-17T23:29:09.236Z,91
2022-10-17T23:31:10.394Z,91
2022-10-17T23:33:06.035Z,91
2022-10-17T23:35:05.880Z,91
2022-10-17T23:37:06.934Z,91
2022-10-17T23:39:09.379Z,91
2022-10-17T23:41:05.898Z,91
2022-10-17T23:43:05.914Z,91
2022-10-17T23:45:06.734Z,91
2022-10-17T23:47:05.586Z,91
2022-10-17T23:49:05.987Z,91
2022-10-17T23:51:08.294Z,91
2022-10-17T23:53:05.888Z,91
2022-10-17T23:55:09.773Z,91
2022-10-17T23:57:06.650Z,91
2022-10-17T23:59:05.694Z,91
